createdAt,value
2018-12-29T00:00:57.093Z,46.50
2018-12-29T00:01:57.040Z,46.70
2018-12-29T00:02:56.958Z,46.70
2018-12-29T00:03:56.861Z,47.20
2018-12-29T00:04:56.788Z,48.10
2018-12-29T00:05:56.725Z,48.50
2018-12-29T00:06:56.649Z,48.50
2018-12-29T00:07:56.561Z,48.50
2018-12-29T00:08:56.500Z,48.30
2018-12-29T00:09:56.425Z,50.60
2018-12-29T00:10:56.352Z,47.90
2018-12-29T00:11:56.278Z,50.30
2018-12-29T00:12:56.211Z,50.20
2018-12-29T00:13:56.122Z,48.80
2018-12-29T00:14:56.056Z,50.10
2018-12-29T00:15:55.987Z,49.80
2018-12-29T00:16:55.906Z,48.40
2018-12-29T00:17:55.840Z,48.90
2018-12-29T00:18:55.757Z,48.90
2018-12-29T00:19:55.695Z,50.80
2018-12-29T00:20:55.608Z,50.90
2018-12-29T00:21:55.537Z,49.70
2018-12-29T00:22:55.466Z,51.90
2018-12-29T00:23:55.393Z,50.80
2018-12-29T00:24:55.315Z,49.10
2018-12-29T00:25:55.246Z,50.80
2018-12-29T00:26:55.169Z,51.80
2018-12-29T00:27:55.091Z,49.70
2018-12-29T00:28:55.024Z,48.90
2018-12-29T00:29:54.951Z,46.90
2018-12-29T00:30:54.869Z,46.80
2018-12-29T00:31:54.801Z,48.50
2018-12-29T00:32:54.733Z,48.40
2018-12-29T00:33:54.671Z,47.40
2018-12-29T00:34:54.578Z,46.90
2018-12-29T00:35:54.512Z,46.20
2018-12-29T00:36:54.433Z,44.90
2018-12-29T00:37:54.363Z,47.70
2018-12-29T00:38:54.289Z,46.40
2018-12-29T00:39:54.213Z,45.80
2018-12-29T00:40:54.141Z,47.70
2018-12-29T00:41:54.067Z,46.50
2018-12-29T00:42:54.031Z,46.60
2018-12-29T00:43:53.912Z,46.50
2018-12-29T00:44:53.854Z,45.80
2018-12-29T00:45:53.770Z,43.00
2018-12-29T00:46:53.690Z,43.10
2018-12-29T00:47:53.616Z,43.20
2018-12-29T00:48:53.538Z,42.70
2018-12-29T00:49:53.492Z,42.60
2018-12-29T00:50:53.397Z,40.40
2018-12-29T00:51:53.335Z,40.00
2018-12-29T00:52:53.255Z,40.90
2018-12-29T00:53:53.177Z,38.80
2018-12-29T00:54:53.107Z,39.40
2018-12-29T00:55:53.042Z,39.30
2018-12-29T00:56:52.964Z,38.60
2018-12-29T00:57:52.885Z,39.60
2018-12-29T00:58:52.805Z,37.30
2018-12-29T00:59:53.899Z,38.20
2018-12-29T01:00:52.660Z,38.10
2018-12-29T01:01:52.578Z,39.50
2018-12-29T01:02:52.512Z,39.10
2018-12-29T01:03:52.438Z,38.20
2018-12-29T01:04:52.360Z,39.90
2018-12-29T01:05:52.290Z,38.70
2018-12-29T01:06:52.224Z,37.80
2018-12-29T01:07:52.141Z,38.40
2018-12-29T01:08:52.059Z,38.60
2018-12-29T01:09:52.003Z,38.60
2018-12-29T01:10:51.920Z,37.40
2018-12-29T01:11:51.844Z,37.60
2018-12-29T01:12:51.772Z,36.40
2018-12-29T01:13:51.699Z,36.60
2018-12-29T01:14:51.621Z,38.80
2018-12-29T01:15:51.576Z,38.10
2018-12-29T01:16:51.476Z,37.80
2018-12-29T01:17:51.401Z,40.60
2018-12-29T01:18:51.329Z,38.90
2018-12-29T01:19:51.242Z,37.80
2018-12-29T01:20:51.166Z,38.80
2018-12-29T01:21:51.101Z,38.30
2018-12-29T01:22:51.031Z,37.10
2018-12-29T01:23:50.953Z,37.70
2018-12-29T01:24:50.878Z,37.40
2018-12-29T01:25:50.804Z,38.20
2018-12-29T01:26:50.728Z,37.50
2018-12-29T01:27:50.653Z,37.10
2018-12-29T01:28:50.572Z,37.30
2018-12-29T01:29:50.515Z,37.20
2018-12-29T01:30:50.437Z,37.30
2018-12-29T01:31:50.355Z,38.50
2018-12-29T01:32:50.296Z,38.60
2018-12-29T01:33:50.248Z,39.00
2018-12-29T01:34:50.137Z,37.70
2018-12-29T01:35:50.058Z,37.80
2018-12-29T01:36:49.986Z,39.80
2018-12-29T01:37:49.913Z,39.30
2018-12-29T01:38:49.841Z,37.70
2018-12-29T01:39:49.765Z,37.20
2018-12-29T01:40:49.688Z,35.70
2018-12-29T01:41:49.611Z,36.50
2018-12-29T01:42:49.549Z,38.30
2018-12-29T01:43:49.466Z,36.90
2018-12-29T01:44:49.387Z,37.00
2018-12-29T01:45:49.322Z,37.70
2018-12-29T01:46:49.249Z,36.40
2018-12-29T01:47:49.173Z,35.30
2018-12-29T01:48:49.100Z,36.00
2018-12-29T01:49:49.027Z,36.90
2018-12-29T01:50:48.946Z,36.90
2018-12-29T01:51:48.874Z,35.90
2018-12-29T01:52:48.821Z,35.70
2018-12-29T01:53:48.722Z,36.70
2018-12-29T01:54:48.646Z,35.60
2018-12-29T01:55:48.590Z,35.10
2018-12-29T01:56:48.492Z,34.40
2018-12-29T01:57:48.474Z,34.10
2018-12-29T01:58:48.355Z,33.90
2018-12-29T01:59:48.279Z,35.80
2018-12-29T02:00:48.215Z,34.00
2018-12-29T02:01:48.130Z,36.80
2018-12-29T02:02:48.067Z,34.60
2018-12-29T02:03:47.990Z,33.70
2018-12-29T02:04:47.935Z,33.40
2018-12-29T02:05:47.838Z,33.80
2018-12-29T02:06:47.762Z,33.20
2018-12-29T02:07:47.696Z,33.10
2018-12-29T02:08:47.615Z,32.70
2018-12-29T02:09:47.535Z,33.40
2018-12-29T02:10:47.466Z,34.40
2018-12-29T02:11:47.394Z,33.10
2018-12-29T02:12:47.318Z,33.40
2018-12-29T02:13:47.240Z,33.10
2018-12-29T02:14:47.170Z,33.30
2018-12-29T02:15:47.106Z,33.00
2018-12-29T02:16:47.030Z,32.40
2018-12-29T02:17:46.948Z,32.50
2018-12-29T02:18:46.873Z,32.50
2018-12-29T02:19:46.799Z,33.10
2018-12-29T02:20:46.714Z,32.80
2018-12-29T02:21:46.644Z,33.60
2018-12-29T02:22:46.582Z,32.40
2018-12-29T02:23:46.510Z,33.00
2018-12-29T02:24:46.495Z,32.60
2018-12-29T02:25:46.354Z,31.80
2018-12-29T02:26:46.279Z,32.40
2018-12-29T02:27:46.206Z,32.70
2018-12-29T02:28:46.140Z,32.40
2018-12-29T02:29:46.063Z,32.20
2018-12-29T02:30:45.986Z,32.10
2018-12-29T02:31:45.935Z,33.50
2018-12-29T02:32:45.834Z,33.50
2018-12-29T02:33:45.764Z,34.00
2018-12-29T02:34:45.685Z,34.00
2018-12-29T02:35:45.622Z,34.10
2018-12-29T02:36:45.536Z,33.20
2018-12-29T02:37:45.462Z,33.20
2018-12-29T02:38:45.381Z,33.60
2018-12-29T02:39:45.314Z,33.60
2018-12-29T02:40:45.235Z,33.80
2018-12-29T02:41:45.166Z,34.50
2018-12-29T02:42:45.089Z,33.60
2018-12-29T02:43:45.019Z,34.10
2018-12-29T02:44:44.938Z,34.00
2018-12-29T02:45:44.871Z,33.90
2018-12-29T02:46:44.800Z,35.00
2018-12-29T02:47:44.722Z,34.80
2018-12-29T02:48:44.643Z,34.90
2018-12-29T02:49:44.567Z,35.40
2018-12-29T02:50:44.504Z,35.50
2018-12-29T02:51:44.415Z,34.90
2018-12-29T02:52:44.346Z,35.60
2018-12-29T02:53:44.272Z,36.60
2018-12-29T02:54:44.196Z,37.60
2018-12-29T02:55:44.114Z,36.00
2018-12-29T02:56:44.062Z,35.00
2018-12-29T02:57:43.966Z,38.90
2018-12-29T02:58:43.901Z,36.00
2018-12-29T02:59:43.835Z,35.90
2018-12-29T03:00:43.772Z,36.40
2018-12-29T03:01:43.683Z,35.40
2018-12-29T03:02:43.600Z,35.60
2018-12-29T03:03:43.524Z,35.50
2018-12-29T03:04:43.444Z,36.60
2018-12-29T03:05:43.378Z,35.30
2018-12-29T03:06:43.306Z,35.10
2018-12-29T03:07:43.224Z,34.70
2018-12-29T03:08:43.152Z,34.10
2018-12-29T03:09:43.103Z,35.30
2018-12-29T03:10:43.016Z,35.40
2018-12-29T03:11:42.937Z,36.10
2018-12-29T03:12:42.865Z,38.30
2018-12-29T03:13:42.792Z,37.60
2018-12-29T03:14:42.703Z,37.60
2018-12-29T03:15:42.631Z,38.90
2018-12-29T03:16:42.583Z,37.80
2018-12-29T03:17:42.472Z,37.10
2018-12-29T03:18:42.408Z,36.70
2018-12-29T03:19:42.340Z,38.20
2018-12-29T03:20:42.275Z,38.30
2018-12-29T03:21:42.183Z,37.00
2018-12-29T03:22:42.107Z,38.90
2018-12-29T03:23:42.024Z,39.10
2018-12-29T03:24:41.954Z,37.90
2018-12-29T03:25:41.878Z,39.60
2018-12-29T03:26:41.807Z,41.80
2018-12-29T03:27:41.732Z,40.80
2018-12-29T03:28:41.663Z,40.70
2018-12-29T03:29:41.590Z,42.00
2018-12-29T03:30:41.509Z,40.10
2018-12-29T03:31:41.460Z,40.50
2018-12-29T03:32:41.369Z,39.20
2018-12-29T03:33:41.282Z,39.00
2018-12-29T03:34:41.218Z,39.10
2018-12-29T03:35:41.132Z,37.60
2018-12-29T03:36:41.067Z,39.80
2018-12-29T03:37:40.989Z,36.90
2018-12-29T03:38:40.914Z,35.80
2018-12-29T03:39:40.842Z,37.40
2018-12-29T03:40:40.772Z,38.20
2018-12-29T03:41:40.686Z,37.80
2018-12-29T03:42:40.615Z,37.30
2018-12-29T03:43:40.547Z,38.70
2018-12-29T03:44:40.477Z,38.40
2018-12-29T03:45:40.391Z,36.00
2018-12-29T03:46:40.315Z,37.20
2018-12-29T03:47:40.237Z,37.10
2018-12-29T03:48:40.170Z,36.00
2018-12-29T03:49:40.093Z,36.50
2018-12-29T03:50:40.008Z,34.70
2018-12-29T03:51:39.948Z,34.00
2018-12-29T03:52:39.868Z,33.80
2018-12-29T03:53:39.801Z,37.20
2018-12-29T03:54:39.734Z,36.10
2018-12-29T03:55:39.639Z,34.60
2018-12-29T03:56:39.568Z,35.70
2018-12-29T03:57:39.492Z,34.60
2018-12-29T03:58:39.421Z,33.90
2018-12-29T03:59:39.345Z,34.10
2018-12-29T04:00:39.268Z,32.70
2018-12-29T04:01:39.190Z,34.10
2018-12-29T04:02:39.113Z,33.10
2018-12-29T04:03:39.053Z,33.50
2018-12-29T04:04:39.032Z,32.90
2018-12-29T04:05:38.905Z,32.30
2018-12-29T04:06:38.820Z,32.80
2018-12-29T04:07:38.745Z,33.70
2018-12-29T04:08:38.673Z,34.20
2018-12-29T04:09:38.618Z,34.50
2018-12-29T04:10:38.524Z,33.40
2018-12-29T04:11:38.451Z,36.00
2018-12-29T04:12:38.386Z,35.20
2018-12-29T04:13:38.296Z,34.00
2018-12-29T04:14:38.222Z,34.10
2018-12-29T04:15:38.145Z,33.90
2018-12-29T04:16:38.075Z,34.10
2018-12-29T04:17:37.993Z,35.30
2018-12-29T04:18:37.929Z,36.10
2018-12-29T04:19:37.854Z,36.70
2018-12-29T04:20:37.897Z,36.80
2018-12-29T04:21:37.697Z,35.50
2018-12-29T04:22:37.626Z,35.20
2018-12-29T04:23:37.549Z,36.60
2018-12-29T04:24:37.484Z,38.10
2018-12-29T04:25:37.411Z,35.60
2018-12-29T04:26:37.336Z,35.40
2018-12-29T04:27:37.260Z,37.90
2018-12-29T04:28:37.202Z,36.70
2018-12-29T04:29:37.105Z,40.90
2018-12-29T04:30:37.037Z,39.00
2018-12-29T04:31:36.947Z,39.60
2018-12-29T04:32:36.874Z,37.90
2018-12-29T04:33:36.816Z,39.40
2018-12-29T04:34:36.732Z,38.90
2018-12-29T04:35:36.659Z,39.30
2018-12-29T04:36:36.606Z,39.50
2018-12-29T04:37:36.510Z,39.90
2018-12-29T04:38:36.450Z,40.60
2018-12-29T04:39:36.347Z,41.90
2018-12-29T04:40:36.282Z,40.90
2018-12-29T04:41:36.205Z,40.90
2018-12-29T04:42:36.132Z,41.20
2018-12-29T04:43:36.057Z,42.50
2018-12-29T04:44:35.982Z,41.70
2018-12-29T04:45:35.899Z,41.00
2018-12-29T04:46:35.838Z,42.10
2018-12-29T04:47:35.784Z,41.40
2018-12-29T04:48:35.690Z,42.80
2018-12-29T04:49:35.608Z,40.20
2018-12-29T04:50:35.537Z,41.30
2018-12-29T04:51:35.462Z,39.30
2018-12-29T04:52:35.393Z,41.30
2018-12-29T04:53:35.312Z,40.70
2018-12-29T04:54:35.237Z,39.30
2018-12-29T04:55:35.169Z,39.30
2018-12-29T04:56:35.089Z,39.50
2018-12-29T04:57:35.022Z,39.20
2018-12-29T04:58:34.943Z,37.00
2018-12-29T04:59:34.863Z,37.50
2018-12-29T05:00:34.796Z,38.20
2018-12-29T05:01:34.710Z,36.70
2018-12-29T05:02:34.645Z,37.10
2018-12-29T05:03:34.581Z,37.10
2018-12-29T05:04:34.504Z,36.20
2018-12-29T05:05:34.413Z,36.90
2018-12-29T05:06:34.343Z,36.10
2018-12-29T05:07:34.289Z,37.40
2018-12-29T05:08:34.197Z,36.10
2018-12-29T05:09:34.125Z,35.60
2018-12-29T05:10:34.048Z,35.10
2018-12-29T05:11:34.000Z,35.40
2018-12-29T05:12:33.895Z,35.20
2018-12-29T05:13:33.821Z,34.40
2018-12-29T05:14:33.753Z,33.90
2018-12-29T05:15:33.670Z,33.90
2018-12-29T05:16:33.611Z,33.30
2018-12-29T05:17:33.517Z,32.50
2018-12-29T05:18:33.445Z,32.80
2018-12-29T05:19:33.369Z,32.80
2018-12-29T05:20:33.303Z,32.40
2018-12-29T05:21:33.211Z,32.30
2018-12-29T05:22:33.148Z,33.00
2018-12-29T05:23:33.079Z,30.50
2018-12-29T05:24:32.997Z,33.40
2018-12-29T05:25:32.924Z,31.10
2018-12-29T05:26:32.844Z,31.10
2018-12-29T05:27:32.773Z,31.90
2018-12-29T05:28:32.692Z,31.90
2018-12-29T05:29:32.625Z,31.00
2018-12-29T05:30:32.553Z,30.70
2018-12-29T05:31:32.479Z,33.10
2018-12-29T05:32:32.425Z,32.70
2018-12-29T05:33:32.339Z,31.50
2018-12-29T05:34:32.249Z,30.30
2018-12-29T05:35:32.174Z,30.00
2018-12-29T05:36:32.098Z,30.80
2018-12-29T05:37:32.021Z,30.20
2018-12-29T05:38:31.948Z,28.80
2018-12-29T05:39:31.877Z,30.30
2018-12-29T05:40:31.813Z,29.80
2018-12-29T05:41:31.722Z,31.20
2018-12-29T05:42:31.653Z,31.30
2018-12-29T05:43:31.579Z,30.40
2018-12-29T05:44:31.500Z,31.00
2018-12-29T05:45:31.429Z,31.70
2018-12-29T05:46:31.356Z,32.50
2018-12-29T05:47:31.267Z,30.50
2018-12-29T05:48:31.204Z,30.90
2018-12-29T05:49:31.124Z,31.20
2018-12-29T05:50:31.050Z,30.70
2018-12-29T05:51:30.988Z,30.90
2018-12-29T05:52:30.908Z,31.60
2018-12-29T05:53:30.834Z,32.00
2018-12-29T05:54:30.758Z,30.50
2018-12-29T05:55:30.680Z,29.90
2018-12-29T05:56:30.597Z,32.00
2018-12-29T05:57:30.527Z,32.50
2018-12-29T05:58:30.455Z,30.70
2018-12-29T05:59:30.406Z,30.00
2018-12-29T06:00:30.304Z,30.10
2018-12-29T06:01:30.237Z,29.10
2018-12-29T06:02:30.152Z,30.90
2018-12-29T06:03:30.087Z,31.10
2018-12-29T06:04:30.002Z,29.90
2018-12-29T06:05:29.930Z,29.20
2018-12-29T06:06:29.856Z,30.40
2018-12-29T06:07:29.780Z,31.10
2018-12-29T06:08:29.698Z,30.40
2018-12-29T06:09:29.626Z,30.20
2018-12-29T06:10:29.553Z,29.30
2018-12-29T06:11:29.478Z,28.40
2018-12-29T06:12:29.406Z,28.20
2018-12-29T06:13:29.337Z,29.10
2018-12-29T06:14:29.248Z,29.50
2018-12-29T06:15:29.177Z,27.70
2018-12-29T06:16:29.138Z,30.20
2018-12-29T06:17:29.026Z,30.60
2018-12-29T06:18:28.959Z,31.70
2018-12-29T06:19:28.896Z,34.90
2018-12-29T06:20:28.808Z,35.20
2018-12-29T06:21:28.731Z,36.70
2018-12-29T06:22:28.665Z,36.20
2018-12-29T06:23:28.579Z,36.90
2018-12-29T06:24:28.511Z,38.50
2018-12-29T06:25:28.433Z,38.40
2018-12-29T06:26:28.355Z,40.80
2018-12-29T06:27:28.288Z,37.80
2018-12-29T06:28:28.207Z,36.60
2018-12-29T06:29:28.130Z,35.10
2018-12-29T06:30:28.064Z,34.50
2018-12-29T06:31:27.987Z,34.70
2018-12-29T06:32:27.907Z,34.50
2018-12-29T06:33:27.839Z,33.80
2018-12-29T06:34:27.757Z,35.10
2018-12-29T06:35:27.686Z,35.60
2018-12-29T06:36:27.618Z,35.20
2018-12-29T06:37:27.540Z,36.40
2018-12-29T06:38:27.466Z,35.50
2018-12-29T06:39:27.397Z,35.20
2018-12-29T06:40:27.311Z,34.40
2018-12-29T06:41:27.243Z,34.30
2018-12-29T06:42:27.169Z,35.30
2018-12-29T06:43:27.095Z,36.10
2018-12-29T06:44:27.030Z,37.40
2018-12-29T06:45:26.942Z,34.90
2018-12-29T06:46:26.864Z,35.00
2018-12-29T06:47:26.786Z,33.90
2018-12-29T06:48:26.737Z,33.70
2018-12-29T06:49:26.649Z,36.60
2018-12-29T06:50:26.571Z,33.80
2018-12-29T06:51:26.497Z,33.70
2018-12-29T06:52:26.420Z,35.20
2018-12-29T06:53:26.346Z,35.00
2018-12-29T06:54:26.270Z,33.80
2018-12-29T06:55:26.197Z,34.40
2018-12-29T06:56:26.123Z,33.00
2018-12-29T06:57:26.053Z,35.40
2018-12-29T06:58:25.968Z,36.90
2018-12-29T06:59:25.898Z,38.50
2018-12-29T07:00:25.821Z,36.40
2018-12-29T07:01:25.750Z,36.40
2018-12-29T07:02:25.678Z,36.00
2018-12-29T07:03:25.592Z,36.90
2018-12-29T07:04:25.518Z,36.70
2018-12-29T07:05:25.451Z,38.30
2018-12-29T07:06:25.377Z,37.40
2018-12-29T07:07:25.301Z,38.60
2018-12-29T07:08:25.220Z,39.80
2018-12-29T07:09:25.150Z,39.20
2018-12-29T07:10:25.079Z,37.60
2018-12-29T07:11:25.008Z,37.70
2018-12-29T07:12:24.933Z,37.60
2018-12-29T07:13:24.856Z,37.20
2018-12-29T07:14:24.779Z,38.00
2018-12-29T07:15:24.706Z,38.30
2018-12-29T07:16:24.636Z,38.70
2018-12-29T07:17:24.558Z,38.60
2018-12-29T07:18:24.488Z,38.20
2018-12-29T07:19:24.414Z,37.60
2018-12-29T07:20:24.340Z,37.10
2018-12-29T07:21:24.260Z,37.20
2018-12-29T07:22:24.189Z,36.20
2018-12-29T07:23:24.157Z,35.90
2018-12-29T07:24:24.037Z,36.00
2018-12-29T07:25:23.968Z,36.20
2018-12-29T07:26:23.884Z,37.10
2018-12-29T07:27:23.815Z,37.50
2018-12-29T07:28:23.743Z,38.60
2018-12-29T07:29:23.652Z,39.20
2018-12-29T07:30:23.593Z,37.70
2018-12-29T07:31:23.515Z,37.20
2018-12-29T07:32:23.442Z,36.70
2018-12-29T07:33:23.366Z,36.70
2018-12-29T07:34:23.297Z,35.50
2018-12-29T07:35:23.216Z,34.40
2018-12-29T07:36:23.142Z,35.10
2018-12-29T07:37:23.075Z,35.70
2018-12-29T07:38:22.999Z,34.20
2018-12-29T07:39:22.921Z,33.90
2018-12-29T07:40:22.843Z,36.10
2018-12-29T07:41:22.776Z,34.90
2018-12-29T07:42:22.698Z,34.90
2018-12-29T07:43:22.659Z,34.40
2018-12-29T07:44:22.547Z,34.00
2018-12-29T07:45:22.472Z,33.90
2018-12-29T07:46:22.395Z,33.80
2018-12-29T07:47:22.394Z,34.50
2018-12-29T07:48:22.245Z,33.70
2018-12-29T07:49:22.181Z,34.10
2018-12-29T07:50:22.095Z,35.10
2018-12-29T07:51:22.020Z,33.90
2018-12-29T07:52:21.955Z,34.30
2018-12-29T07:53:21.878Z,34.10
2018-12-29T07:54:21.802Z,34.30
2018-12-29T07:55:21.727Z,33.40
2018-12-29T07:56:21.651Z,34.50
2018-12-29T07:57:21.595Z,35.90
2018-12-29T07:58:21.511Z,35.50
2018-12-29T07:59:21.437Z,34.60
2018-12-29T08:00:21.355Z,35.10
2018-12-29T08:01:21.276Z,35.90
2018-12-29T08:02:21.209Z,34.90
2018-12-29T08:03:21.129Z,36.30
2018-12-29T08:04:21.050Z,34.30
2018-12-29T08:05:20.974Z,35.30
2018-12-29T08:06:20.913Z,36.70
2018-12-29T08:07:20.834Z,35.90
2018-12-29T08:08:20.754Z,36.30
2018-12-29T08:09:20.684Z,36.60
2018-12-29T08:10:20.608Z,37.10
2018-12-29T08:11:20.531Z,37.80
2018-12-29T08:12:20.458Z,37.20
2018-12-29T08:13:20.386Z,39.80
2018-12-29T08:14:20.311Z,37.90
2018-12-29T08:15:20.227Z,38.20
2018-12-29T08:16:20.159Z,39.20
2018-12-29T08:17:20.079Z,37.40
2018-12-29T08:18:20.004Z,35.70
2018-12-29T08:19:19.940Z,36.10
2018-12-29T08:20:19.863Z,37.00
2018-12-29T08:21:19.786Z,36.10
2018-12-29T08:22:19.709Z,36.70
2018-12-29T08:23:19.640Z,36.10
2018-12-29T08:24:19.578Z,36.80
2018-12-29T08:25:19.484Z,37.30
2018-12-29T08:26:19.419Z,40.10
2018-12-29T08:27:19.340Z,38.30
2018-12-29T08:28:19.263Z,38.40
2018-12-29T08:29:19.184Z,38.00
2018-12-29T08:30:19.117Z,37.50
2018-12-29T08:31:19.042Z,38.10
2018-12-29T08:32:18.966Z,37.40
2018-12-29T08:33:18.890Z,36.70
2018-12-29T08:34:18.817Z,36.70
2018-12-29T08:35:18.746Z,36.70
2018-12-29T08:36:18.667Z,37.90
2018-12-29T08:37:18.597Z,39.20
2018-12-29T08:38:18.527Z,39.90
2018-12-29T08:39:18.443Z,40.00
2018-12-29T08:40:18.373Z,41.90
2018-12-29T08:41:18.289Z,42.80
2018-12-29T08:42:18.228Z,44.50
2018-12-29T08:43:18.151Z,44.90
2018-12-29T08:44:18.071Z,44.50
2018-12-29T08:45:17.997Z,42.70
2018-12-29T08:46:17.962Z,41.90
2018-12-29T08:47:17.849Z,41.90
2018-12-29T08:48:17.775Z,41.90
2018-12-29T08:49:17.704Z,43.20
2018-12-29T08:50:17.629Z,42.80
2018-12-29T08:51:17.547Z,44.30
2018-12-29T08:52:17.482Z,44.50
2018-12-29T08:53:17.399Z,44.70
2018-12-29T08:54:17.339Z,42.90
2018-12-29T08:55:17.261Z,42.00
2018-12-29T08:56:17.188Z,40.40
2018-12-29T08:57:17.110Z,38.50
2018-12-29T08:58:17.029Z,38.70
2018-12-29T08:59:16.963Z,39.80
2018-12-29T09:00:16.890Z,39.70
2018-12-29T09:01:16.815Z,39.40
2018-12-29T09:02:16.745Z,40.30
2018-12-29T09:03:16.662Z,43.00
2018-12-29T09:04:16.608Z,44.90
2018-12-29T09:05:16.523Z,44.80
2018-12-29T09:06:16.456Z,46.20
2018-12-29T09:07:16.372Z,48.60
2018-12-29T09:08:16.297Z,49.50
2018-12-29T09:09:16.214Z,48.40
2018-12-29T09:10:16.154Z,47.70
2018-12-29T09:11:16.110Z,46.20
2018-12-29T09:12:15.999Z,47.20
2018-12-29T09:13:15.930Z,47.30
2018-12-29T09:14:15.861Z,45.60
2018-12-29T09:15:15.781Z,47.50
2018-12-29T09:16:15.713Z,47.40
2018-12-29T09:17:15.633Z,48.40
2018-12-29T09:18:15.566Z,48.60
2018-12-29T09:19:15.485Z,49.60
2018-12-29T09:20:15.413Z,50.50
2018-12-29T09:21:15.346Z,47.50
2018-12-29T09:22:15.268Z,49.60
2018-12-29T09:23:15.190Z,51.60
2018-12-29T09:24:15.117Z,51.70
2018-12-29T09:25:15.044Z,52.00
2018-12-29T09:26:14.969Z,52.30
2018-12-29T09:27:14.890Z,52.10
2018-12-29T09:28:14.831Z,51.90
2018-12-29T09:29:14.751Z,50.20
2018-12-29T09:30:14.671Z,52.20
2018-12-29T09:31:14.601Z,51.30
2018-12-29T09:32:14.529Z,50.70
2018-12-29T09:33:14.451Z,53.00
2018-12-29T09:34:14.379Z,54.10
2018-12-29T09:35:14.308Z,54.40
2018-12-29T09:36:14.233Z,55.00
2018-12-29T09:37:14.161Z,55.00
2018-12-29T09:38:14.086Z,58.40
2018-12-29T09:39:14.014Z,58.40
2018-12-29T09:40:13.930Z,57.30
2018-12-29T09:41:13.863Z,58.80
2018-12-29T09:42:13.787Z,56.50
2018-12-29T09:43:13.719Z,58.90
2018-12-29T09:44:13.639Z,58.10
2018-12-29T09:45:13.564Z,57.90
2018-12-29T09:46:13.508Z,60.40
2018-12-29T09:47:19.684Z,60.30
2018-12-29T09:48:13.349Z,60.40
2018-12-29T09:49:13.276Z,64.20
2018-12-29T09:50:13.201Z,62.30
2018-12-29T09:51:13.124Z,62.10
2018-12-29T09:52:13.064Z,62.20
2018-12-29T10:03:19.109Z,42.60
2018-12-29T10:04:19.037Z,53.20
2018-12-29T10:06:13.381Z,58.90
2018-12-29T10:07:13.282Z,58.30
2018-12-29T10:09:08.605Z,60.40
2018-12-29T10:10:08.436Z,58.90
2018-12-29T10:12:03.693Z,61.30
2018-12-29T10:13:03.599Z,61.30
2018-12-29T10:14:58.900Z,61.20
2018-12-29T10:15:58.781Z,59.70
2018-12-29T10:17:54.052Z,58.20
2018-12-29T10:18:53.944Z,60.00
2018-12-29T10:20:49.224Z,59.20
2018-12-29T10:21:49.139Z,59.40
2018-12-29T10:23:43.410Z,61.10
2018-12-29T10:24:43.310Z,58.60
2018-12-29T10:26:38.574Z,59.90
2018-12-29T10:27:38.493Z,62.20
2018-12-29T10:29:33.788Z,61.90
2018-12-29T10:30:33.662Z,64.50
2018-12-29T10:32:27.945Z,62.50
2018-12-29T10:33:27.863Z,63.20
2018-12-29T10:35:23.100Z,63.80
2018-12-29T10:36:23.000Z,62.70
2018-12-29T10:38:18.278Z,64.10
2018-12-29T10:39:18.181Z,64.90
2018-12-29T10:41:13.457Z,64.70
2018-12-29T10:42:13.363Z,64.50
2018-12-29T10:44:08.643Z,63.80
2018-12-29T10:45:08.542Z,64.80
2018-12-29T10:47:03.812Z,65.00
2018-12-29T10:48:03.721Z,64.40
2018-12-29T10:49:59.003Z,65.80
2018-12-29T10:50:58.909Z,63.20
2018-12-29T10:52:54.186Z,65.50
2018-12-29T10:53:54.077Z,64.10
2018-12-29T10:55:49.340Z,65.80
2018-12-29T10:56:49.248Z,64.40
2018-12-29T10:58:44.521Z,64.90
2018-12-29T10:59:44.421Z,64.50
2018-12-29T11:01:38.716Z,66.50
2018-12-29T11:02:38.609Z,65.50
2018-12-29T11:04:33.865Z,66.90
2018-12-29T11:05:33.781Z,65.80
2018-12-29T11:07:29.062Z,64.90
2018-12-29T11:08:28.975Z,65.20
2018-12-29T11:10:23.312Z,63.10
2018-12-29T11:11:23.212Z,63.70
2018-12-29T11:13:18.462Z,61.70
2018-12-29T11:14:18.375Z,61.00
2018-12-29T11:16:12.645Z,58.70
2018-12-29T11:17:12.540Z,61.60
2018-12-29T11:19:07.907Z,60.60
2018-12-29T11:20:07.700Z,62.30
2018-12-29T11:22:02.974Z,65.00
2018-12-29T11:23:02.884Z,65.10
2018-12-29T11:24:58.935Z,64.60
2018-12-29T11:25:58.867Z,65.50
2018-12-29T11:27:54.168Z,62.20
2018-12-29T11:28:54.042Z,63.30
2018-12-29T11:30:49.384Z,64.80
2018-12-29T11:31:49.271Z,63.70
2018-12-29T11:33:44.536Z,64.30
2018-12-29T11:34:44.440Z,64.40
2018-12-29T11:36:38.743Z,64.50
2018-12-29T11:37:38.634Z,59.20
2018-12-29T11:39:32.906Z,63.60
2018-12-29T11:40:32.824Z,62.20
2018-12-29T11:42:28.096Z,59.10
2018-12-29T11:43:28.018Z,58.90
2018-12-29T11:45:23.271Z,53.00
2018-12-29T11:46:23.215Z,54.40
2018-12-29T11:48:18.485Z,52.70
2018-12-29T11:49:18.418Z,52.00
2018-12-29T11:51:14.573Z,50.80
2018-12-29T11:52:14.463Z,50.20
2018-12-29T11:54:09.764Z,48.60
2018-12-29T11:55:09.703Z,49.70
2018-12-29T11:57:04.975Z,45.60
2018-12-29T11:58:04.871Z,44.60
2018-12-29T12:00:00.234Z,42.20
2018-12-29T12:01:00.034Z,42.50
2018-12-29T12:02:55.375Z,40.00
2018-12-29T12:03:55.209Z,37.70
2018-12-29T12:05:50.486Z,37.00
2018-12-29T12:06:50.396Z,36.60
2018-12-29T12:07:50.328Z,36.00
2018-12-29T12:08:50.247Z,35.80
2018-12-29T12:09:50.179Z,35.00
2018-12-29T12:10:50.106Z,34.50
2018-12-29T12:11:50.033Z,34.80
2018-12-29T12:12:49.960Z,33.10
2018-12-29T12:13:49.883Z,32.50
2018-12-29T12:14:49.811Z,31.60
2018-12-29T12:15:49.743Z,30.80
2018-12-29T12:16:49.669Z,30.70
2018-12-29T12:17:49.593Z,30.70
2018-12-29T12:18:49.521Z,29.30
2018-12-29T12:19:49.462Z,29.70
2018-12-29T12:20:49.385Z,29.20
2018-12-29T12:21:49.320Z,28.20
2018-12-29T12:22:49.248Z,28.20
2018-12-29T12:23:49.175Z,27.50
2018-12-29T12:24:49.104Z,26.70
2018-12-29T12:25:49.033Z,25.90
2018-12-29T12:26:48.962Z,24.00
2018-12-29T12:27:48.884Z,24.10
2018-12-29T12:28:48.812Z,25.40
2018-12-29T12:29:48.731Z,24.60
2018-12-29T12:30:48.667Z,23.80
2018-12-29T12:31:48.602Z,22.20
2018-12-29T12:32:48.522Z,22.70
2018-12-29T12:33:48.452Z,22.40
2018-12-29T12:34:48.378Z,21.80
2018-12-29T12:35:48.308Z,20.50
2018-12-29T12:36:48.235Z,20.00
2018-12-29T12:37:48.183Z,19.20
2018-12-29T12:38:48.098Z,17.90
2018-12-29T12:39:48.040Z,18.40
2018-12-29T12:40:47.948Z,18.20
2018-12-29T12:41:47.875Z,18.00
2018-12-29T12:42:47.799Z,18.50
2018-12-29T12:43:47.733Z,17.30
2018-12-29T12:44:47.658Z,17.20
2018-12-29T12:45:47.586Z,16.50
2018-12-29T12:46:47.517Z,17.50
2018-12-29T12:47:47.441Z,17.50
2018-12-29T12:48:47.366Z,17.70
2018-12-29T12:49:47.303Z,17.60
2018-12-29T12:50:47.226Z,16.70
2018-12-29T12:51:47.160Z,17.40
2018-12-29T12:52:47.086Z,17.20
2018-12-29T12:53:47.016Z,16.90
2018-12-29T12:54:46.948Z,17.00
2018-12-29T12:55:46.870Z,16.30
2018-12-29T12:56:46.799Z,17.30
2018-12-29T12:57:46.723Z,16.50
2018-12-29T12:58:46.650Z,17.10
2018-12-29T12:59:46.580Z,17.40
2018-12-29T13:00:46.520Z,17.20
2018-12-29T13:01:46.438Z,17.00
2018-12-29T13:02:46.373Z,18.50
2018-12-29T13:03:46.301Z,17.90
2018-12-29T13:04:46.228Z,17.80
2018-12-29T13:05:46.155Z,16.70
2018-12-29T13:06:46.081Z,17.70
2018-12-29T13:07:46.012Z,17.40
2018-12-29T13:08:45.933Z,17.30
2018-12-29T13:09:46.645Z,17.60
2018-12-29T13:10:45.807Z,18.10
2018-12-29T13:11:45.758Z,18.30
2018-12-29T13:12:45.659Z,18.90
2018-12-29T13:13:45.588Z,17.70
2018-12-29T13:14:45.508Z,17.50
2018-12-29T13:15:45.434Z,18.50
2018-12-29T13:16:45.368Z,18.00
2018-12-29T13:17:45.283Z,17.40
2018-12-29T13:18:45.228Z,18.40
2018-12-29T13:19:45.152Z,17.80
2018-12-29T13:20:45.076Z,16.70
2018-12-29T13:21:45.009Z,16.50
2018-12-29T13:22:44.947Z,17.30
2018-12-29T13:23:44.869Z,18.70
2018-12-29T13:24:44.799Z,18.00
2018-12-29T13:25:44.752Z,18.00
2018-12-29T13:26:44.661Z,21.10
2018-12-29T13:27:44.580Z,18.40
2018-12-29T13:28:44.506Z,18.40
2018-12-29T13:29:44.436Z,18.30
2018-12-29T13:30:44.387Z,18.40
2018-12-29T13:31:44.289Z,18.30
2018-12-29T13:32:44.230Z,19.20
2018-12-29T13:33:44.196Z,19.40
2018-12-29T13:34:44.093Z,19.80
2018-12-29T13:35:44.015Z,20.30
2018-12-29T13:36:43.935Z,19.60
2018-12-29T13:37:43.875Z,20.00
2018-12-29T13:38:43.794Z,20.40
2018-12-29T13:39:43.734Z,19.90
2018-12-29T13:40:44.665Z,19.90